Williams, OR (97544)

11:02 AM PDT on October 25, 2014 (GMT -0700)
Bonlinda Lane | Change Station
CLOSE
Current Station
Personal Weather Station
Location: Williams, OR
Elevation: 1542 ft
Nearby Weather Stations

Elev 1542 ft 42.20 °N, 123.30 °W | Updated 14 minutes ago

Overcast
Overcast
55.6 °F
Feels Like 55.6 °F
N
0.0
Wind Variable Wind from SSE
Gusts 0.0 mph

Today
High -- | Low -- °F
--% Chance of Precip.
Yesterday
High -- | Low -- °F
Precip. -- in
7:37 AM 6:15 PM
Waxing Crescent, 4% visible
Pressure 29.57 in
Visibility 10.0 miles
Clouds Mostly Cloudy 7000 ft
Overcast 8500 ft
Dew Point 52 °F
Humidity 86%
Rainfall 0.04 in
Snow Depth Not available.
UV 1 out of 12
Pollen .40 out of 12
Air Quality Not available.
Flu Activity Sporadic
METAR KMFR 251753Z 20013G25KT 10SM -RA BKN070 OVC085 19/06 A2958 RMK AO2 PK WND 17029/1654 RAB18E27B52 SLP011 P0000 60002 T01940056 10200 20122 53012

More Conditions Fewer Conditions

Pressure 29.57 in
Visibility 10.0 miles
Clouds Mostly Cloudy 7000 ft
Overcast 8500 ft
Dew Point 52 °F
Humidity 86%
Rainfall 0.04 in
Snow Depth Not available.
UV 1 out of 12
Pollen .40 out of 12
Air Quality Not available.
Flu Activity Sporadic
METAR KMFR 251753Z 20013G25KT 10SM -RA BKN070 OVC085 19/06 A2958 RMK AO2 PK WND 17029/1654 RAB18E27B52 SLP011 P0000 60002 T01940056 10200 20122 53012

More Conditions Fewer Conditions

10-Day Weather Forecast

Almanac

Astronomy

Oct. 25, 2014 Rise Set
Actual Time 7:37 AM PDT 6:15 PM PDT
Civil Twilight 7:09 AM PDT 6:44 PM PDT
Nautical Twilight 6:36 AM PDT 7:17 PM PDT
Astronomical Twilight 6:03 AM PDT 7:49 PM PDT
Moon 9:23 AM PDT 7:41 PM PDT
Length of Visible Light 11h 35m
Length of Day
10h 38m
Tomorrow will be 2m 38s shorter.
Waxing Crescent, 4% of the Moon is Illuminated
Today
Waxing Crescent
Oct 30
First Quarter
Nov 6
Full
Nov 14
Last Quarter
Nov 22
New

Today's Extremes

State Highs State Lows

Community

WunderPhotos

Upload Photos

1,764,926 photos uploaded!

Nearby

Snow Depth

Station Depth Elevation
Big Red Mountain 0 in 6250 ft
Fish Lake 0 in 4665 ft
Billie Creek Divide 0 in 5300 ft
Cold Springs Camp 0 in 6100 ft
Sevenmile Marsh 1 in 6200 ft

Earthquake Activity

City Distance Mag. Time & Date
No recent earthquake activity has been reported nearby.
Minimum magnitude displayed is 2.5.

Coastal Water Temperatures

Place Temperature
No Stations Reporting

Nearby Weather Stations